Time;durP1;ratioP1;P1;durP2;ratioP2;P2;SDS_P1;SDS_P2;PMS_P1;PMS_P2;Temp;Humidity;BMP_temperature;BMP_pressure;BME280_temperature;BME280_humidity;BME280_pressure;Samples;Min_cycle;Max_cycle;Signal;HPM_P1;HPM_P2
2023/12/20 00:00:09;;;;;;;1.40;1.40;;;;;;;;;;5080293;28;20294;-74
2023/12/20 00:02:36;;;;;;;1.30;1.20;;;;;;;;;;5068251;28;20208;-73
2023/12/20 00:05:04;;;;;;;1.77;1.33;;;;;;;;;;5073249;28;20579;-75
2023/12/20 00:07:30;;;;;;;1.17;1.17;;;;;;;;;;5078695;28;20207;-74
2023/12/20 00:09:56;;;;;;;1.20;1.20;;;;;;;;;;5077001;28;20250;-73
2023/12/20 00:12:22;;;;;;;2.05;1.23;;;;;;;;;;5077336;28;20216;-74
2023/12/20 00:14:49;;;;;;;1.20;1.20;;;;;;;;;;5079981;28;20284;-73
2023/12/20 00:17:15;;;;;;;0.98;0.98;;;;;;;;;;5079708;28;20635;-72
2023/12/20 00:19:41;;;;;;;0.90;0.90;;;;;;;;;;5077023;28;20230;-73
2023/12/20 00:22:09;;;;;;;1.20;1.20;;;;;;;;;;5076260;28;20369;-73
2023/12/20 00:24:35;;;;;;;1.20;1.20;;;;;;;;;;5077537;28;20209;-73
2023/12/20 00:27:01;;;;;;;0.90;0.90;;;;;;;;;;5079308;28;20212;-72
2023/12/20 00:29:28;;;;;;;0.82;0.82;;;;;;;;;;5070742;28;20610;-73
2023/12/20 00:31:54;;;;;;;1.00;1.00;;;;;;;;;;5079643;28;20814;-72
2023/12/20 00:34:21;;;;;;;0.98;0.98;;;;;;;;;;5079035;28;20915;-71
2023/12/20 00:36:47;;;;;;;0.80;0.80;;;;;;;;;;5075572;28;20227;-72
2023/12/20 00:39:14;;;;;;;0.77;0.77;;;;;;;;;;5074017;28;20234;-74
2023/12/20 00:41:41;;;;;;;0.90;0.90;;;;;;;;;;5085716;28;20216;-72
2023/12/20 00:44:07;;;;;;;0.80;0.80;;;;;;;;;;5085278;28;20209;-72
2023/12/20 00:46:33;;;;;;;0.93;0.93;;;;;;;;;;5076490;28;20227;-72
2023/12/20 00:49:00;;;;;;;1.10;1.10;;;;;;;;;;5084709;28;20196;-72
2023/12/20 00:51:26;;;;;;;2.50;1.02;;;;;;;;;;5088997;28;20267;-72
2023/12/20 00:53:54;;;;;;;1.75;0.82;;;;;;;;;;5083291;28;20195;-72
2023/12/20 00:56:22;;;;;;;0.90;0.90;;;;;;;;;;5081392;28;20284;-72
2023/12/20 00:58:48;;;;;;;1.75;0.93;;;;;;;;;;5081213;28;20216;-72
2023/12/20 01:01:14;;;;;;;1.15;1.15;;;;;;;;;;5082865;28;20211;-72
2023/12/20 01:03:40;;;;;;;1.05;1.05;;;;;;;;;;5085578;28;20200;-72
2023/12/20 01:06:07;;;;;;;1.15;1.13;;;;;;;;;;5083497;28;20650;-72
2023/12/20 01:08:34;;;;;;;1.15;1.15;;;;;;;;;;5081219;28;20656;-72
2023/12/20 01:11:01;;;;;;;1.13;1.02;;;;;;;;;;5084143;28;20195;-72
2023/12/20 01:13:27;;;;;;;1.00;1.00;;;;;;;;;;5083724;28;20660;-72
2023/12/20 01:15:54;;;;;;;0.90;0.90;;;;;;;;;;5088067;28;20231;-72
2023/12/20 01:18:20;;;;;;;1.90;0.95;;;;;;;;;;5087856;28;20272;-72
2023/12/20 01:20:46;;;;;;;1.08;1.00;;;;;;;;;;5083517;28;20204;-72
2023/12/20 01:23:12;;;;;;;1.58;1.30;;;;;;;;;;5083889;28;20196;-72
2023/12/20 01:25:38;;;;;;;1.52;1.42;;;;;;;;;;5083863;28;20228;-72
2023/12/20 01:28:05;;;;;;;1.38;1.30;;;;;;;;;;5087052;28;20242;-72
2023/12/20 01:30:32;;;;;;;1.38;1.38;;;;;;;;;;5090075;28;20552;-72
2023/12/20 01:33:00;;;;;;;1.52;1.30;;;;;;;;;;5098827;28;20204;-71
2023/12/20 01:35:26;;;;;;;1.08;1.02;;;;;;;;;;5098887;28;20227;-71
2023/12/20 01:37:56;;;;;;;1.02;0.90;;;;;;;;;;5099828;28;20215;-71
2023/12/20 01:40:22;;;;;;;1.13;1.13;;;;;;;;;;5099912;28;20222;-71
2023/12/20 01:42:48;;;;;;;1.60;1.50;;;;;;;;;;5104066;28;20282;-71
2023/12/20 01:45:15;;;;;;;1.38;0.93;;;;;;;;;;5102076;28;20219;-71
2023/12/20 01:47:42;;;;;;;1.05;0.90;;;;;;;;;;5097820;28;20233;-71
2023/12/20 01:50:09;;;;;;;1.08;0.90;;;;;;;;;;5098766;28;20632;-71
2023/12/20 01:52:35;;;;;;;0.93;0.93;;;;;;;;;;5098563;28;20209;-71
2023/12/20 01:55:04;;;;;;;0.77;0.77;;;;;;;;;;5103245;28;20223;-72
2023/12/20 01:57:29;;;;;;;0.80;0.80;;;;;;;;;;5092816;28;20256;-72
2023/12/20 01:59:56;;;;;;;0.73;0.73;;;;;;;;;;5079902;28;20216;-72
2023/12/20 02:02:22;;;;;;;0.73;0.73;;;;;;;;;;5087597;28;20206;-72
2023/12/20 02:04:50;;;;;;;0.63;0.63;;;;;;;;;;5083445;28;20227;-72
2023/12/20 02:07:17;;;;;;;0.85;0.80;;;;;;;;;;5086230;28;20206;-72
2023/12/20 02:09:43;;;;;;;0.80;0.80;;;;;;;;;;5083594;28;20200;-72
2023/12/20 02:12:10;;;;;;;0.88;0.65;;;;;;;;;;5089345;28;20262;-72
2023/12/20 02:14:36;;;;;;;0.50;0.50;;;;;;;;;;5089026;28;20199;-72
2023/12/20 02:17:03;;;;;;;1.05;0.80;;;;;;;;;;5084142;28;20269;-72
2023/12/20 02:19:29;;;;;;;1.55;0.75;;;;;;;;;;5086462;28;20241;-72
2023/12/20 02:22:07;;;;;;;1.10;0.80;;;;;;;;;;5091106;28;20253;-71
2023/12/20 02:24:33;;;;;;;0.73;0.73;;;;;;;;;;5091468;28;20200;-72
2023/12/20 02:26:59;;;;;;;0.90;0.90;;;;;;;;;;5080001;28;20266;-72
2023/12/20 02:29:25;;;;;;;0.60;0.60;;;;;;;;;;5090805;28;20245;-72
2023/12/20 02:31:52;;;;;;;0.70;0.70;;;;;;;;;;5087430;28;20200;-72
2023/12/20 02:34:18;;;;;;;1.15;0.60;;;;;;;;;;5086917;28;20593;-72
2023/12/20 02:36:44;;;;;;;0.50;0.50;;;;;;;;;;5086913;28;20640;-72
2023/12/20 02:39:13;;;;;;;0.80;0.80;;;;;;;;;;5095170;28;20764;-72
2023/12/20 02:41:39;;;;;;;0.70;0.70;;;;;;;;;;5087074;28;20214;-73
2023/12/20 02:44:05;;;;;;;0.70;0.70;;;;;;;;;;5086756;28;20199;-72
2023/12/20 02:46:31;;;;;;;0.88;0.88;;;;;;;;;;5087603;28;20228;-72
2023/12/20 02:48:58;;;;;;;0.70;0.70;;;;;;;;;;5086507;28;20203;-72
2023/12/20 02:51:24;;;;;;;0.82;0.82;;;;;;;;;;5088621;28;20441;-72
2023/12/20 02:53:50;;;;;;;0.70;0.70;;;;;;;;;;5091250;28;20261;-72
2023/12/20 02:56:18;;;;;;;0.70;0.70;;;;;;;;;;5088798;28;20224;-72
2023/12/20 02:58:44;;;;;;;1.05;0.80;;;;;;;;;;5086235;28;20223;-72
2023/12/20 03:01:10;;;;;;;0.90;0.90;;;;;;;;;;5086598;28;20215;-72
2023/12/20 03:03:36;;;;;;;0.80;0.80;;;;;;;;;;5086763;28;20201;-72
2023/12/20 03:06:03;;;;;;;1.02;1.00;;;;;;;;;;5086440;28;20212;-72
2023/12/20 03:08:29;;;;;;;0.80;0.80;;;;;;;;;;5086596;28;20204;-72
2023/12/20 03:10:55;;;;;;;0.93;0.93;;;;;;;;;;5086210;28;20618;-72
2023/12/20 03:13:23;;;;;;;2.13;0.93;;;;;;;;;;5088593;28;20205;-72
2023/12/20 03:15:49;;;;;;;0.60;0.60;;;;;;;;;;5091199;28;20229;-72
2023/12/20 03:18:15;;;;;;;0.77;0.60;;;;;;;;;;5088030;28;20249;-73
2023/12/20 03:20:41;;;;;;;0.70;0.70;;;;;;;;;;5086184;28;20274;-72
2023/12/20 03:23:08;;;;;;;0.60;0.60;;;;;;;;;;5090431;28;20254;-72
2023/12/20 03:25:34;;;;;;;0.80;0.80;;;;;;;;;;5090374;28;20224;-72
2023/12/20 03:28:01;;;;;;;1.20;1.05;;;;;;;;;;5083043;28;20205;-72
2023/12/20 03:30:28;;;;;;;2.33;0.95;;;;;;;;;;5089148;28;20196;-72
2023/12/20 03:32:54;;;;;;;0.85;0.85;;;;;;;;;;5085922;28;20233;-72
2023/12/20 03:35:21;;;;;;;0.70;0.70;;;;;;;;;;5085978;28;20219;-72
2023/12/20 03:37:47;;;;;;;0.80;0.80;;;;;;;;;;5086110;28;20672;-72
2023/12/20 03:40:13;;;;;;;0.95;0.95;;;;;;;;;;5088635;28;20723;-73
2023/12/20 03:42:39;;;;;;;0.80;0.80;;;;;;;;;;5090234;28;20207;-72
2023/12/20 03:45:06;;;;;;;0.73;0.73;;;;;;;;;;5082320;28;20212;-72
2023/12/20 03:47:34;;;;;;;0.77;0.77;;;;;;;;;;5089429;28;20207;-72
2023/12/20 03:50:00;;;;;;;0.93;0.93;;;;;;;;;;5085379;28;20226;-72
2023/12/20 03:52:26;;;;;;;1.55;1.02;;;;;;;;;;5085517;28;20208;-72
2023/12/20 03:54:53;;;;;;;1.30;1.10;;;;;;;;;;5085219;28;20224;-72
2023/12/20 03:57:19;;;;;;;1.55;1.08;;;;;;;;;;5088875;28;20200;-72
2023/12/20 03:59:46;;;;;;;0.90;0.90;;;;;;;;;;5090111;28;20277;-72
2023/12/20 04:02:13;;;;;;;1.17;1.10;;;;;;;;;;5086004;28;20583;-72
2023/12/20 04:04:40;;;;;;;1.20;1.15;;;;;;;;;;5085194;28;20694;-72
2023/12/20 04:07:06;;;;;;;0.98;0.98;;;;;;;;;;5085273;28;20199;-72
2023/12/20 04:09:33;;;;;;;1.10;1.10;;;;;;;;;;5086554;28;20192;-72
2023/12/20 04:11:59;;;;;;;1.52;1.40;;;;;;;;;;5090217;28;20614;-72
2023/12/20 04:14:25;;;;;;;1.08;1.08;;;;;;;;;;5087189;28;20652;-72
2023/12/20 04:16:52;;;;;;;1.00;1.00;;;;;;;;;;5084830;28;20310;-72
2023/12/20 04:19:18;;;;;;;0.85;0.80;;;;;;;;;;5084825;28;20219;-72
2023/12/20 04:21:46;;;;;;;0.95;0.95;;;;;;;;;;5084900;28;20212;-73
2023/12/20 04:24:12;;;;;;;0.80;0.80;;;;;;;;;;5089249;28;20209;-72
2023/12/20 04:26:38;;;;;;;1.00;1.00;;;;;;;;;;5088978;28;20420;-73
2023/12/20 04:29:04;;;;;;;1.30;1.20;;;;;;;;;;5084732;28;20199;-72
2023/12/20 04:31:30;;;;;;;1.27;1.17;;;;;;;;;;5084955;28;20286;-72
2023/12/20 04:33:57;;;;;;;1.50;1.10;;;;;;;;;;5084785;28;20258;-73
2023/12/20 04:36:25;;;;;;;0.90;0.90;;;;;;;;;;5087759;28;20224;-72
2023/12/20 04:38:52;;;;;;;1.00;1.00;;;;;;;;;;5089180;28;20218;-72
2023/12/20 04:41:19;;;;;;;0.90;0.90;;;;;;;;;;5085967;28;20203;-72
2023/12/20 04:43:45;;;;;;;0.90;0.90;;;;;;;;;;5084471;28;20668;-72
2023/12/20 04:46:11;;;;;;;1.33;1.33;;;;;;;;;;5084231;28;20712;-73
2023/12/20 04:48:37;;;;;;;1.10;1.10;;;;;;;;;;5085828;28;20200;-73
2023/12/20 04:51:04;;;;;;;1.38;1.27;;;;;;;;;;5088030;28;20203;-72
2023/12/20 04:53:30;;;;;;;1.70;1.70;;;;;;;;;;5086998;28;20200;-72
2023/12/20 04:55:58;;;;;;;1.27;1.27;;;;;;;;;;5084383;28;20223;-72
2023/12/20 04:58:25;;;;;;;1.40;1.30;;;;;;;;;;5084548;28;20268;-72
2023/12/20 05:00:51;;;;;;;1.33;1.30;;;;;;;;;;5083852;28;20602;-72
2023/12/20 05:03:17;;;;;;;1.50;1.48;;;;;;;;;;5088442;28;20197;-72
2023/12/20 05:05:44;;;;;;;1.38;1.38;;;;;;;;;;5088340;28;20225;-72
2023/12/20 05:08:10;;;;;;;1.58;1.48;;;;;;;;;;5075620;28;20195;-72
2023/12/20 05:10:36;;;;;;;1.30;1.30;;;;;;;;;;5084043;28;20195;-72
2023/12/20 05:13:04;;;;;;;1.23;1.20;;;;;;;;;;5083975;28;20200;-72
2023/12/20 05:15:30;;;;;;;1.23;1.23;;;;;;;;;;5086798;28;20251;-72
2023/12/20 05:17:56;;;;;;;1.00;1.00;;;;;;;;;;5088866;28;20199;-72
2023/12/20 05:20:23;;;;;;;1.42;1.10;;;;;;;;;;5084740;28;20216;-71
2023/12/20 05:22:49;;;;;;;1.40;1.40;;;;;;;;;;5083867;28;20287;-72
2023/12/20 05:25:15;;;;;;;2.70;1.30;;;;;;;;;;5080787;28;20220;-72
2023/12/20 05:27:42;;;;;;;1.70;1.40;;;;;;;;;;5087470;28;20245;-72
2023/12/20 05:30:10;;;;;;;1.67;1.20;;;;;;;;;;5083609;28;20196;-72
2023/12/20 05:32:36;;;;;;;1.38;1.38;;;;;;;;;;5083650;28;20687;-72
2023/12/20 05:35:03;;;;;;;1.15;1.15;;;;;;;;;;5083332;28;20311;-74
2023/12/20 05:37:29;;;;;;;1.90;1.30;;;;;;;;;;5086702;28;20740;-73
2023/12/20 05:39:55;;;;;;;0.60;0.60;;;;;;;;;;5088189;28;20695;-73
2023/12/20 05:42:21;;;;;;;1.00;1.00;;;;;;;;;;5084332;28;20721;-73
2023/12/20 05:44:48;;;;;;;1.02;1.02;;;;;;;;;;5083301;28;20219;-74
2023/12/20 05:47:15;;;;;;;2.13;1.17;;;;;;;;;;5083205;28;20203;-73
2023/12/20 05:49:42;;;;;;;1.05;0.70;;;;;;;;;;5084944;28;20250;-73
2023/12/20 05:52:08;;;;;;;0.80;0.80;;;;;;;;;;5088389;28;20203;-73
2023/12/20 05:54:35;;;;;;;0.68;0.50;;;;;;;;;;5085669;28;20196;-74
2023/12/20 05:57:01;;;;;;;0.80;0.80;;;;;;;;;;5083390;28;20202;-72
2023/12/20 05:59:27;;;;;;;0.68;0.68;;;;;;;;;;5083297;28;20302;-73
2023/12/20 06:01:54;;;;;;;2.15;0.80;;;;;;;;;;5082944;28;20201;-73
2023/12/20 06:04:21;;;;;;;0.90;0.90;;;;;;;;;;5087630;28;20204;-73
2023/12/20 06:06:47;;;;;;;1.20;0.90;;;;;;;;;;5087269;28;20292;-72
2023/12/20 06:09:15;;;;;;;1.10;0.65;;;;;;;;;;5083307;28;20192;-72
2023/12/20 06:11:41;;;;;;;1.70;0.70;;;;;;;;;;5083330;28;20202;-72
2023/12/20 06:14:07;;;;;;;1.00;1.00;;;;;;;;;;5083031;28;20230;-72
2023/12/20 06:16:33;;;;;;;1.40;0.80;;;;;;;;;;5085877;28;20223;-72
2023/12/20 06:18:59;;;;;;;0.90;0.90;;;;;;;;;;5087795;28;20200;-72
2023/12/20 06:21:27;;;;;;;1.50;0.80;;;;;;;;;;5083885;28;20609;-72
2023/12/20 06:23:53;;;;;;;0.80;0.80;;;;;;;;;;5083073;28;20208;-73
2023/12/20 06:26:20;;;;;;;0.80;0.80;;;;;;;;;;5082919;28;20223;-72
2023/12/20 06:28:46;;;;;;;1.00;0.93;;;;;;;;;;5083136;28;20268;-73
2023/12/20 06:31:12;;;;;;;0.93;0.63;;;;;;;;;;5082758;28;20196;-72
2023/12/20 06:33:40;;;;;;;1.80;1.00;;;;;;;;;;5085586;28;20200;-72
2023/12/20 06:36:06;;;;;;;1.00;1.00;;;;;;;;;;5087748;28;20222;-72
2023/12/20 06:38:34;;;;;;;2.83;0.80;;;;;;;;;;5084584;28;20200;-72
2023/12/20 06:41:00;;;;;;;0.77;0.77;;;;;;;;;;5082967;28;20211;-73
2023/12/20 06:43:27;;;;;;;2.38;0.80;;;;;;;;;;5082694;28;20195;-73
2023/12/20 06:45:53;;;;;;;2.08;1.00;;;;;;;;;;5083112;28;20220;-73
2023/12/20 06:48:20;;;;;;;1.00;1.00;;;;;;;;;;5082539;28;20207;-72
2023/12/20 06:50:46;;;;;;;0.80;0.80;;;;;;;;;;5084237;28;20196;-72
2023/12/20 06:53:13;;;;;;;1.45;1.02;;;;;;;;;;5087376;28;20196;-63
2023/12/20 06:55:40;;;;;;;0.95;0.95;;;;;;;;;;5084756;28;20220;-63
2023/12/20 06:58:06;;;;;;;1.27;0.90;;;;;;;;;;5082398;28;20192;-63
2023/12/20 07:00:33;;;;;;;1.13;0.90;;;;;;;;;;5082331;28;20219;-63
2023/12/20 07:02:59;;;;;;;1.05;0.90;;;;;;;;;;5082208;28;20671;-63
2023/12/20 07:05:26;;;;;;;0.68;0.68;;;;;;;;;;5087114;28;20216;-63
2023/12/20 07:07:53;;;;;;;1.45;0.52;;;;;;;;;;5086436;28;20287;-63
2023/12/20 07:10:19;;;;;;;1.65;0.47;;;;;;;;;;5082631;28;20223;-63
2023/12/20 07:12:48;;;;;;;2.35;0.70;;;;;;;;;;5082193;28;20234;-62
2023/12/20 07:15:14;;;;;;;1.05;0.70;;;;;;;;;;5084758;28;20289;-63
2023/12/20 07:17:41;;;;;;;0.75;0.55;;;;;;;;;;5089127;28;20318;-63
2023/12/20 07:20:10;;;;;;;3.60;1.30;;;;;;;;;;5090685;28;20273;-64
2023/12/20 07:22:37;;;;;;;0.70;0.70;;;;;;;;;;5087465;28;20286;-63
2023/12/20 07:25:03;;;;;;;0.68;0.50;;;;;;;;;;5085695;28;20302;-64
2023/12/20 07:27:29;;;;;;;0.40;0.40;;;;;;;;;;5085590;28;20552;-63
2023/12/20 07:29:57;;;;;;;0.75;0.75;;;;;;;;;;5086481;28;20735;-63
2023/12/20 07:32:23;;;;;;;0.75;0.65;;;;;;;;;;5090513;28;20619;-64
2023/12/20 07:34:50;;;;;;;0.70;0.70;;;;;;;;;;5088670;28;20216;-64
2023/12/20 07:37:16;;;;;;;1.45;0.85;;;;;;;;;;5085469;28;20204;-64
2023/12/20 07:39:42;;;;;;;0.90;0.90;;;;;;;;;;5085326;28;20219;-63
2023/12/20 07:42:09;;;;;;;1.48;0.80;;;;;;;;;;5085426;28;20216;-63
2023/12/20 07:44:36;;;;;;;1.50;1.10;;;;;;;;;;5089340;28;20197;-64
2023/12/20 07:47:04;;;;;;;0.80;0.80;;;;;;;;;;5090354;28;20290;-63
2023/12/20 07:49:31;;;;;;;5.03;1.10;;;;;;;;;;5082314;28;20287;-63
2023/12/20 07:51:57;;;;;;;3.17;0.75;;;;;;;;;;5089404;28;20222;-64
2023/12/20 07:54:23;;;;;;;0.90;0.85;;;;;;;;;;5084999;28;20195;-63
2023/12/20 07:56:49;;;;;;;1.05;1.05;;;;;;;;;;5085234;28;20776;-63
2023/12/20 07:59:16;;;;;;;1.10;1.10;;;;;;;;;;5085083;28;20559;-62
2023/12/20 08:01:42;;;;;;;1.30;1.30;;;;;;;;;;5088321;28;20220;-63
2023/12/20 08:04:10;;;;;;;1.25;1.15;;;;;;;;;;5089979;28;20286;-63
2023/12/20 08:06:36;;;;;;;4.05;1.17;;;;;;;;;;5086076;28;20216;-63
2023/12/20 08:09:03;;;;;;;1.50;1.50;;;;;;;;;;5084998;28;20203;-63
2023/12/20 08:11:30;;;;;;;3.25;1.35;;;;;;;;;;5085443;28;20196;-63
2023/12/20 08:13:56;;;;;;;1.52;1.17;;;;;;;;;;5086316;28;20199;-63
2023/12/20 08:16:23;;;;;;;1.40;1.40;;;;;;;;;;5089668;28;20288;-62
2023/12/20 08:18:49;;;;;;;1.10;1.10;;;;;;;;;;5086863;28;20269;-62
2023/12/20 08:21:19;;;;;;;1.33;1.33;;;;;;;;;;5084203;28;20219;-62
2023/12/20 08:23:46;;;;;;;3.50;1.25;;;;;;;;;;5084130;28;20200;-62
2023/12/20 08:26:12;;;;;;;1.20;1.20;;;;;;;;;;5083964;28;20669;-62
2023/12/20 08:28:38;;;;;;;1.35;1.33;;;;;;;;;;5084389;28;20196;-62
2023/12/20 08:31:05;;;;;;;1.65;1.55;;;;;;;;;;5084403;28;20197;-62
2023/12/20 08:33:31;;;;;;;1.60;1.50;;;;;;;;;;5083751;28;20198;-62
2023/12/20 08:35:57;;;;;;;1.67;1.63;;;;;;;;;;5085488;28;20269;-62
2023/12/20 08:38:25;;;;;;;1.50;1.40;;;;;;;;;;5087565;28;20245;-62
2023/12/20 08:40:51;;;;;;;1.27;1.27;;;;;;;;;;5084541;28;20216;-62
2023/12/20 08:43:18;;;;;;;2.13;1.55;;;;;;;;;;5082322;28;20207;-62
2023/12/20 08:45:44;;;;;;;2.08;1.70;;;;;;;;;;5082198;28;20215;-62
2023/12/20 08:48:10;;;;;;;1.67;1.50;;;;;;;;;;5082187;28;20643;-62
2023/12/20 08:50:37;;;;;;;2.15;1.65;;;;;;;;;;5086557;28;20708;-62
2023/12/20 08:53:03;;;;;;;2.03;1.92;;;;;;;;;;5087770;28;20294;-62
2023/12/20 08:55:31;;;;;;;1.80;1.70;;;;;;;;;;5083830;28;21077;-62
2023/12/20 08:57:57;;;;;;;1.85;1.63;;;;;;;;;;5084130;28;20195;-62
2023/12/20 09:00:24;;;;;;;2.15;1.95;;;;;;;;;;5083867;28;20242;-62
2023/12/20 09:02:50;;;;;;;2.20;2.10;;;;;;;;;;5086748;28;20296;-62
2023/12/20 09:05:16;;;;;;;3.08;2.00;;;;;;;;;;5088595;28;20645;-62
2023/12/20 09:07:43;;;;;;;2.80;2.08;;;;;;;;;;5084950;28;20664;-63
2023/12/20 09:10:09;;;;;;;2.22;2.08;;;;;;;;;;5083652;28;20687;-62
2023/12/20 09:12:39;;;;;;;3.05;2.03;;;;;;;;;;5083904;28;20193;-62
2023/12/20 09:15:05;;;;;;;2.08;1.88;;;;;;;;;;5084596;28;20216;-62
2023/12/20 09:17:32;;;;;;;2.03;1.85;;;;;;;;;;5088754;28;20205;-62
2023/12/20 09:19:59;;;;;;;1.70;1.60;;;;;;;;;;5087126;28;20204;-62
2023/12/20 09:22:26;;;;;;;2.45;2.10;;;;;;;;;;5083862;28;20210;-62
2023/12/20 09:24:52;;;;;;;1.60;1.60;;;;;;;;;;5083669;28;20215;-62
2023/12/20 09:27:18;;;;;;;2.30;1.90;;;;;;;;;;5083437;28;20212;-62
2023/12/20 09:29:48;;;;;;;1.75;1.65;;;;;;;;;;5087247;28;20200;-62
2023/12/20 09:32:14;;;;;;;1.98;1.88;;;;;;;;;;5088143;28;20620;-62
2023/12/20 09:34:41;;;;;;;2.00;1.80;;;;;;;;;;5083407;28;20204;-62
2023/12/20 09:37:07;;;;;;;3.25;1.63;;;;;;;;;;5082806;28;20196;-62
2023/12/20 09:39:34;;;;;;;3.38;1.95;;;;;;;;;;5083337;28;20241;-62
2023/12/20 09:42:01;;;;;;;1.98;1.80;;;;;;;;;;5085126;28;20216;-63
2023/12/20 09:44:27;;;;;;;1.83;1.73;;;;;;;;;;5087907;28;20291;-62
2023/12/20 09:46:55;;;;;;;2.65;1.70;;;;;;;;;;5076996;28;20586;-62
2023/12/20 09:49:22;;;;;;;5.13;1.83;;;;;;;;;;5082951;28;20603;-62
2023/12/20 09:51:51;;;;;;;2.83;1.40;;;;;;;;;;5086763;28;20578;-62
2023/12/20 09:54:18;;;;;;;1.63;1.48;;;;;;;;;;5088001;28;20199;-62
2023/12/20 09:56:44;;;;;;;3.38;1.58;;;;;;;;;;5083922;28;20227;-62
2023/12/20 09:59:11;;;;;;;1.55;1.45;;;;;;;;;;5083002;28;20227;-62
2023/12/20 10:01:39;;;;;;;5.50;1.45;;;;;;;;;;5082914;28;20298;-62
2023/12/20 10:04:08;;;;;;;2.75;1.40;;;;;;;;;;5084520;28;20220;-62
2023/12/20 10:06:35;;;;;;;5.13;2.38;;;;;;;;;;5087891;28;20219;-62
2023/12/20 10:09:01;;;;;;;1.63;1.50;;;;;;;;;;5085775;28;20627;-62
2023/12/20 10:11:27;;;;;;;2.45;1.13;;;;;;;;;;5082957;28;20195;-62
2023/12/20 10:13:59;;;;;;;1.98;1.20;;;;;;;;;;5082819;28;20214;-62
2023/12/20 10:16:26;;;;;;;4.60;1.25;;;;;;;;;;5083156;28;20220;-62
2023/12/20 10:18:53;;;;;;;5.55;1.40;;;;;;;;;;5086649;28;20207;-63
2023/12/20 10:21:21;;;;;;;6.70;1.38;;;;;;;;;;5080107;28;20220;-62
2023/12/20 10:23:48;;;;;;;2.17;1.10;;;;;;;;;;5083278;28;20555;-62
2023/12/20 10:26:19;;;;;;;4.30;1.50;;;;;;;;;;5083718;28;20238;-63
2023/12/20 10:28:46;;;;;;;6.70;1.35;;;;;;;;;;5079676;28;20283;-62
2023/12/20 10:31:26;;;;;;;2.22;1.38;;;;;;;;;;5087330;28;20200;-62
2023/12/20 10:33:52;;;;;;;4.82;0.95;;;;;;;;;;5079858;28;20200;-63
2023/12/20 10:36:18;;;;;;;4.63;1.60;;;;;;;;;;5087972;28;20276;-62
2023/12/20 10:38:47;;;;;;;3.33;1.00;;;;;;;;;;5091217;23;20623;-66
2023/12/20 10:41:17;;;;;;;2.33;1.02;;;;;;;;;;4961973;28;20216;-66
2023/12/20 10:43:43;;;;;;;4.00;1.13;;;;;;;;;;4961222;28;20200;-66
2023/12/20 10:46:09;;;;;;;2.78;1.33;;;;;;;;;;4961710;28;20273;-66
2023/12/20 10:48:36;;;;;;;3.10;1.13;;;;;;;;;;4959507;28;20265;-66
2023/12/20 10:51:03;;;;;;;3.92;1.10;;;;;;;;;;4961280;28;20213;-66
2023/12/20 10:53:30;;;;;;;5.00;1.20;;;;;;;;;;4962418;28;20584;-66
2023/12/20 10:56:01;;;;;;;6.03;1.25;;;;;;;;;;4964779;28;20272;-66
2023/12/20 10:58:27;;;;;;;5.30;1.77;;;;;;;;;;4964291;28;20204;-65
2023/12/20 11:00:56;;;;;;;4.55;1.17;;;;;;;;;;4961574;28;20220;-66
2023/12/20 11:03:24;;;;;;;3.03;1.23;;;;;;;;;;4961513;28;20291;-66
2023/12/20 11:05:55;;;;;;;5.00;1.27;;;;;;;;;;4964798;28;20273;-66
2023/12/20 11:08:27;;;;;;;7.72;1.58;;;;;;;;;;4964764;28;20672;-66
2023/12/20 11:10:57;;;;;;;4.10;1.33;;;;;;;;;;4961244;28;20557;-66
2023/12/20 11:13:27;;;;;;;2.03;1.10;;;;;;;;;;4961314;28;20205;-66
2023/12/20 11:15:54;;;;;;;4.90;1.38;;;;;;;;;;4964567;28;20220;-66
2023/12/20 11:18:20;;;;;;;1.83;0.88;;;;;;;;;;4964771;28;20204;-66
2023/12/20 11:20:46;;;;;;;5.82;1.30;;;;;;;;;;4964242;28;20261;-66
2023/12/20 11:23:14;;;;;;;5.93;1.20;;;;;;;;;;4964835;28;20207;-66
2023/12/20 11:25:50;;;;;;;1.98;1.00;;;;;;;;;;4962196;28;20231;-66
2023/12/20 11:28:17;;;;;;;4.40;1.52;;;;;;;;;;4961386;28;20207;-66
2023/12/20 11:30:49;;;;;;;4.07;1.15;;;;;;;;;;4963460;28;20235;-66
2023/12/20 11:33:15;;;;;;;5.32;1.38;;;;;;;;;;4964125;28;20297;-66
2023/12/20 11:35:42;;;;;;;5.43;1.30;;;;;;;;;;4961687;28;20740;-66
2023/12/20 11:38:08;;;;;;;1.98;0.93;;;;;;;;;;4960921;28;20212;-66
2023/12/20 11:40:35;;;;;;;3.22;1.25;;;;;;;;;;4961970;28;20213;-66
2023/12/20 11:43:01;;;;;;;5.25;1.35;;;;;;;;;;4964052;28;20200;-66
2023/12/20 11:45:27;;;;;;;4.13;1.25;;;;;;;;;;4963904;28;20273;-66
2023/12/20 11:47:55;;;;;;;3.13;1.17;;;;;;;;;;4960738;28;20200;-66
2023/12/20 11:50:21;;;;;;;5.22;1.23;;;;;;;;;;4960870;28;20247;-66
2023/12/20 11:52:48;;;;;;;2.15;1.25;;;;;;;;;;4968501;28;20200;-66
2023/12/20 11:55:14;;;;;;;7.50;1.27;;;;;;;;;;4960474;28;20721;-66
2023/12/20 11:57:41;;;;;;;3.92;1.67;;;;;;;;;;4962329;28;20678;-66
2023/12/20 12:00:08;;;;;;;3.17;1.45;;;;;;;;;;4963220;28;20624;-66
2023/12/20 12:02:34;;;;;;;1.80;1.20;;;;;;;;;;4962866;28;21540;-66
2023/12/20 12:05:01;;;;;;;6.28;2.05;;;;;;;;;;4960537;28;20224;-66
2023/12/20 12:07:28;;;;;;;9.80;3.72;;;;;;;;;;4960622;28;20224;-66
2023/12/20 12:09:54;;;;;;;4.65;2.05;;;;;;;;;;4963928;28;20208;-66
2023/12/20 12:12:20;;;;;;;1.77;0.90;;;;;;;;;;4963935;28;20207;-66
2023/12/20 12:14:47;;;;;;;3.75;1.30;;;;;;;;;;4960923;28;20203;-66
2023/12/20 12:17:13;;;;;;;3.03;1.23;;;;;;;;;;4960604;28;20208;-66
2023/12/20 12:19:40;;;;;;;5.15;1.30;;;;;;;;;;4961709;28;20684;-66
2023/12/20 12:22:10;;;;;;;4.03;1.35;;;;;;;;;;4963819;28;20855;-66
2023/12/20 12:24:37;;;;;;;5.20;1.25;;;;;;;;;;4962356;28;20204;-66
2023/12/20 12:27:03;;;;;;;2.53;1.00;;;;;;;;;;4960277;28;20208;-66
2023/12/20 12:29:30;;;;;;;2.58;1.40;;;;;;;;;;4959991;28;20208;-66
2023/12/20 12:31:56;;;;;;;2.80;1.20;;;;;;;;;;4960321;28;20201;-66
2023/12/20 12:34:22;;;;;;;5.70;1.55;;;;;;;;;;4960103;28;20243;-66
2023/12/20 12:36:49;;;;;;;3.45;1.30;;;;;;;;;;4962299;28;20221;-66
2023/12/20 12:39:18;;;;;;;5.00;1.33;;;;;;;;;;4963245;28;20215;-66
2023/12/20 12:41:44;;;;;;;6.55;1.60;;;;;;;;;;4961429;28;20656;-66
2023/12/20 12:44:10;;;;;;;5.63;1.23;;;;;;;;;;4959983;28;20262;-66
2023/12/20 12:46:37;;;;;;;5.05;1.77;;;;;;;;;;4960853;28;20225;-66
2023/12/20 12:49:03;;;;;;;7.05;1.63;;;;;;;;;;4963279;28;20204;-66
2023/12/20 12:51:30;;;;;;;5.22;1.30;;;;;;;;;;4963459;28;20201;-66
2023/12/20 12:53:56;;;;;;;7.00;1.48;;;;;;;;;;4963102;28;20208;-66
2023/12/20 12:56:24;;;;;;;3.60;1.30;;;;;;;;;;4963033;28;20227;-66
2023/12/20 12:58:50;;;;;;;4.32;1.42;;;;;;;;;;4960674;28;20208;-66
2023/12/20 13:01:16;;;;;;;4.00;1.25;;;;;;;;;;4959563;28;20251;-66
2023/12/20 13:03:42;;;;;;;4.22;1.20;;;;;;;;;;4960755;28;20208;-66
2023/12/20 13:06:08;;;;;;;8.75;1.58;;;;;;;;;;4963000;28;20224;-66
2023/12/20 13:08:36;;;;;;;3.38;1.23;;;;;;;;;;4962628;28;20207;-66
2023/12/20 13:11:04;;;;;;;3.85;1.02;;;;;;;;;;4959448;28;20231;-66
2023/12/20 13:13:31;;;;;;;3.78;1.23;;;;;;;;;;4958479;28;20212;-66
2023/12/20 13:15:58;;;;;;;5.57;1.27;;;;;;;;;;4967398;28;20228;-66
2023/12/20 13:18:24;;;;;;;5.40;1.27;;;;;;;;;;4959581;28;20254;-66
2023/12/20 13:20:50;;;;;;;3.95;1.27;;;;;;;;;;4961391;28;20212;-66
2023/12/20 13:23:18;;;;;;;4.97;1.50;;;;;;;;;;4962813;28;20220;-66
2023/12/20 13:25:45;;;;;;;5.53;1.55;;;;;;;;;;4961193;28;20228;-66
2023/12/20 13:28:12;;;;;;;5.03;1.30;;;;;;;;;;4959395;28;20591;-66
2023/12/20 13:30:39;;;;;;;6.20;1.23;;;;;;;;;;4959659;28;20211;-66
2023/12/20 13:33:06;;;;;;;3.45;1.10;;;;;;;;;;4962664;28;20196;-66
2023/12/20 13:35:32;;;;;;;1.45;1.35;;;;;;;;;;4962617;28;20315;-66
2023/12/20 13:37:58;;;;;;;2.15;1.20;;;;;;;;;;4954458;28;20291;-66
2023/12/20 13:40:24;;;;;;;3.92;1.45;;;;;;;;;;4963901;28;20204;-66
2023/12/20 13:42:51;;;;;;;10.27;1.75;;;;;;;;;;4960969;28;20220;-66
2023/12/20 13:45:17;;;;;;;5.68;1.50;;;;;;;;;;4962475;28;20277;-66
2023/12/20 13:47:45;;;;;;;6.63;1.80;;;;;;;;;;4961622;28;20207;-66
2023/12/20 13:50:11;;;;;;;2.67;1.15;;;;;;;;;;4959037;28;20257;-66
2023/12/20 13:52:37;;;;;;;7.82;1.75;;;;;;;;;;4959104;28;20204;-66
2023/12/20 13:55:05;;;;;;;3.22;1.50;;;;;;;;;;4959122;28;20235;-66
2023/12/20 13:57:31;;;;;;;4.95;1.30;;;;;;;;;;4959528;28;20262;-67
2023/12/20 13:59:58;;;;;;;5.32;1.50;;;;;;;;;;4961329;28;20204;-66
2023/12/20 14:02:24;;;;;;;5.70;1.38;;;;;;;;;;4962369;28;20224;-66
2023/12/20 14:04:51;;;;;;;4.43;1.40;;;;;;;;;;4960528;28;20265;-67
2023/12/20 14:07:18;;;;;;;3.88;1.40;;;;;;;;;;4958950;28;20200;-66
2023/12/20 14:09:45;;;;;;;6.15;1.67;;;;;;;;;;4959044;28;20669;-66
2023/12/20 14:12:11;;;;;;;4.53;1.30;;;;;;;;;;4962402;28;20583;-66
2023/12/20 14:14:37;;;;;;;2.63;1.40;;;;;;;;;;4961807;28;20212;-66
2023/12/20 14:17:06;;;;;;;4.50;1.10;;;;;;;;;;4962056;28;20196;-67
2023/12/20 14:19:32;;;;;;;3.33;1.23;;;;;;;;;;4961942;28;20678;-66
2023/12/20 14:22:01;;;;;;;5.28;1.00;;;;;;;;;;4959299;28;20216;-66
2023/12/20 14:24:28;;;;;;;7.53;1.52;;;;;;;;;;4967129;28;20204;-66
2023/12/20 14:26:54;;;;;;;3.80;1.20;;;;;;;;;;4963904;28;20208;-66
2023/12/20 14:29:20;;;;;;;3.47;1.20;;;;;;;;;;4962046;28;20367;-66
2023/12/20 14:31:46;;;;;;;2.92;1.35;;;;;;;;;;4961885;28;20208;-66
2023/12/20 14:34:13;;;;;;;6.18;1.20;;;;;;;;;;4961798;28;20212;-66
2023/12/20 14:36:40;;;;;;;3.72;1.15;;;;;;;;;;4961821;28;20650;-66
2023/12/20 14:39:08;;;;;;;3.30;1.27;;;;;;;;;;4969953;28;20315;-66